createdAt,value
2017-08-15T00:02:18.316Z,6.50
2017-08-15T00:04:48.411Z,5.57
2017-08-15T00:07:17.741Z,6.80
2017-08-15T00:09:47.827Z,7.60
2017-08-15T00:12:17.156Z,6.37
2017-08-15T00:14:47.236Z,6.15
2017-08-15T00:17:16.577Z,6.03
2017-08-15T00:19:45.888Z,6.18
2017-08-15T00:22:16.000Z,6.18
2017-08-15T00:24:45.324Z,6.50
2017-08-15T00:27:14.629Z,7.15
2017-08-15T00:29:43.969Z,7.20
2017-08-15T00:32:13.272Z,6.55
2017-08-15T00:34:42.602Z,5.62
2017-08-15T00:37:11.905Z,6.20
2017-08-15T00:39:41.229Z,6.70
2017-08-15T00:42:10.536Z,6.80
2017-08-15T00:44:39.866Z,5.75
2017-08-15T00:47:09.176Z,6.30
2017-08-15T00:49:38.504Z,5.75
2017-08-15T00:52:07.815Z,6.40
2017-08-15T00:54:37.137Z,7.35
2017-08-15T00:57:06.441Z,6.87
2017-08-15T00:59:35.774Z,7.68
2017-08-15T01:02:05.085Z,6.20
2017-08-15T01:04:34.408Z,6.40
2017-08-15T01:07:03.710Z,6.50
2017-08-15T01:09:33.031Z,6.32
2017-08-15T01:12:02.328Z,6.65
2017-08-15T01:14:31.647Z,6.30
2017-08-15T01:17:00.952Z,5.55
2017-08-15T01:19:30.307Z,6.45
2017-08-15T01:21:59.636Z,5.93
2017-08-15T01:24:28.964Z,6.10
2017-08-15T01:26:58.262Z,6.30
2017-08-15T01:29:27.588Z,6.30
2017-08-15T01:31:56.883Z,6.50
2017-08-15T01:34:27.260Z,6.00
2017-08-15T01:36:56.556Z,5.35
2017-08-15T01:39:25.864Z,5.57
2017-08-15T01:41:55.183Z,6.07
2017-08-15T01:44:24.484Z,6.03
2017-08-15T01:46:53.814Z,5.30
2017-08-15T01:49:23.875Z,5.40
2017-08-15T01:51:53.197Z,5.35
2017-08-15T01:54:22.498Z,5.80
2017-08-15T01:56:51.819Z,5.85
2017-08-15T01:59:21.137Z,5.80
2017-08-15T02:01:51.219Z,6.35
2017-08-15T02:04:20.532Z,5.85
2017-08-15T02:06:49.858Z,5.07
2017-08-15T02:09:19.165Z,6.45
2017-08-15T02:11:49.247Z,5.87
2017-08-15T02:14:18.560Z,6.00
2017-08-15T02:16:47.880Z,5.53
2017-08-15T02:19:17.949Z,6.03
2017-08-15T02:21:47.311Z,5.70
2017-08-15T02:24:16.623Z,5.72
2017-08-15T02:26:45.947Z,5.10
2017-08-15T02:29:15.244Z,5.78
2017-08-15T02:31:44.777Z,5.87
2017-08-15T02:34:14.138Z,6.00
2017-08-15T02:36:43.460Z,5.90
2017-08-15T02:39:12.771Z,5.03
2017-08-15T02:41:42.067Z,5.07
2017-08-15T02:44:11.396Z,5.00
2017-08-15T02:46:40.697Z,6.10
2017-08-15T02:49:10.080Z,5.35
2017-08-15T02:51:39.376Z,5.50
2017-08-15T02:54:08.691Z,6.28
2017-08-15T02:56:37.996Z,5.62
2017-08-15T02:59:07.317Z,5.95
2017-08-15T03:01:36.645Z,5.75
2017-08-15T03:04:05.952Z,5.62
2017-08-15T03:06:35.273Z,5.75
2017-08-15T03:09:04.624Z,5.45
2017-08-15T03:11:34.711Z,7.75
2017-08-15T03:14:04.023Z,5.55
2017-08-15T03:16:33.324Z,5.85
2017-08-15T03:19:02.685Z,5.35
2017-08-15T03:21:31.976Z,5.60
2017-08-15T03:24:01.320Z,5.62
2017-08-15T03:26:30.611Z,5.60
2017-08-15T03:28:59.936Z,5.80
2017-08-15T03:31:29.256Z,5.90
2017-08-15T03:33:58.597Z,6.30
2017-08-15T03:36:27.895Z,5.50
2017-08-15T03:38:57.231Z,6.03
2017-08-15T03:41:26.534Z,6.37
2017-08-15T03:43:55.855Z,6.75
2017-08-15T03:46:25.176Z,7.32
2017-08-15T03:48:55.256Z,6.53
2017-08-15T03:51:24.572Z,6.93
2017-08-15T03:53:53.980Z,6.55
2017-08-15T03:56:23.327Z,6.75
2017-08-15T03:58:52.640Z,7.97
2017-08-15T04:01:21.974Z,8.00
2017-08-15T04:03:51.284Z,8.40
2017-08-15T04:06:20.609Z,7.40
2017-08-15T04:08:49.919Z,9.52
2017-08-15T04:11:19.248Z,7.82
2017-08-15T04:13:48.581Z,7.55
2017-08-15T04:16:17.892Z,9.30
2017-08-15T04:18:47.204Z,8.27
2017-08-15T04:21:16.538Z,7.87
2017-08-15T04:23:45.847Z,8.10
2017-08-15T04:26:15.174Z,8.73
2017-08-15T04:28:44.482Z,8.50
2017-08-15T04:31:13.808Z,9.25
2017-08-15T04:33:43.116Z,7.65
2017-08-15T04:36:12.452Z,7.05
2017-08-15T04:38:41.744Z,7.40
2017-08-15T04:41:11.068Z,7.35
2017-08-15T04:43:40.379Z,7.75
2017-08-15T04:46:09.685Z,7.82
2017-08-15T04:48:39.015Z,7.40
2017-08-15T04:51:08.327Z,7.15
2017-08-15T04:53:38.409Z,7.03
2017-08-15T04:56:07.724Z,6.28
2017-08-15T04:58:37.052Z,7.12
2017-08-15T05:01:06.364Z,7.15
2017-08-15T05:03:36.312Z,7.60
2017-08-15T05:06:05.619Z,7.43
2017-08-15T05:08:34.948Z,6.75
2017-08-15T05:11:04.261Z,7.55
2017-08-15T05:13:34.328Z,7.12
2017-08-15T05:16:03.643Z,7.18
2017-08-15T05:18:32.971Z,7.85
2017-08-15T05:21:02.275Z,6.45
2017-08-15T05:23:31.592Z,7.00
2017-08-15T05:26:01.655Z,7.37
2017-08-15T05:28:30.989Z,6.50
2017-08-15T05:31:00.331Z,6.35
2017-08-15T05:33:30.408Z,6.85
2017-08-15T05:35:59.764Z,6.40
2017-08-15T05:38:29.059Z,7.28
2017-08-15T05:40:58.380Z,6.05
2017-08-15T05:43:27.688Z,7.00
2017-08-15T05:45:57.008Z,6.35
2017-08-15T05:48:26.311Z,5.70
2017-08-15T05:50:55.630Z,5.97
2017-08-15T05:53:24.933Z,5.85
2017-08-15T05:55:54.251Z,5.57
2017-08-15T05:58:24.331Z,6.05
2017-08-15T06:00:53.654Z,6.00
2017-08-15T06:03:22.968Z,5.90
2017-08-15T06:05:52.276Z,7.07
2017-08-15T06:08:21.597Z,5.68
2017-08-15T06:10:50.977Z,5.55
2017-08-15T06:13:20.299Z,5.87
2017-08-15T06:15:49.607Z,5.87
2017-08-15T06:18:18.917Z,6.53
2017-08-15T06:20:48.321Z,5.80
2017-08-15T06:23:17.623Z,5.15
2017-08-15T06:25:46.932Z,4.97
2017-08-15T06:28:16.249Z,5.40
2017-08-15T06:30:45.571Z,5.30
2017-08-15T06:33:14.891Z,5.53
2017-08-15T06:35:44.960Z,5.35
2017-08-15T06:38:14.304Z,5.32
2017-08-15T06:40:43.632Z,5.00
2017-08-15T06:43:12.961Z,5.78
2017-08-15T06:45:42.264Z,5.62
2017-08-15T06:48:11.584Z,6.05
2017-08-15T06:50:40.899Z,7.28
2017-08-15T06:53:10.212Z,5.70
2017-08-15T06:55:40.284Z,7.68
2017-08-15T06:58:09.619Z,6.05
2017-08-15T07:00:38.938Z,7.47
2017-08-15T07:03:09.032Z,6.85
2017-08-15T07:05:38.347Z,6.22
2017-08-15T07:08:07.677Z,6.40
2017-08-15T07:10:36.991Z,6.85
2017-08-15T07:13:06.316Z,6.22
2017-08-15T07:15:36.443Z,6.80
2017-08-15T07:18:05.836Z,6.60
2017-08-15T07:20:35.202Z,7.07
2017-08-15T07:23:05.281Z,5.53
2017-08-15T07:25:34.590Z,5.95
2017-08-15T07:28:03.929Z,5.80
2017-08-15T07:30:33.241Z,6.37
2017-08-15T07:33:02.588Z,5.80
2017-08-15T07:35:32.859Z,6.55
2017-08-15T07:38:02.196Z,6.60
2017-08-15T07:40:31.523Z,6.12
2017-08-15T07:43:00.844Z,5.40
2017-08-15T07:45:30.948Z,5.95
2017-08-15T07:48:01.039Z,5.78
2017-08-15T07:50:31.167Z,5.80
2017-08-15T07:53:00.485Z,5.75
2017-08-15T07:55:29.816Z,5.55
2017-08-15T07:57:59.918Z,5.00
2017-08-15T08:00:29.249Z,5.45
2017-08-15T08:02:58.568Z,5.50
2017-08-15T08:05:27.933Z,5.97
2017-08-15T08:07:58.004Z,6.25
2017-08-15T08:10:27.344Z,5.68
2017-08-15T08:12:56.661Z,5.90
2017-08-15T08:15:26.761Z,5.70
2017-08-15T08:17:56.085Z,5.45
2017-08-15T08:20:25.424Z,5.78
2017-08-15T08:22:54.727Z,6.00
2017-08-15T08:25:24.057Z,4.85
2017-08-15T08:27:53.367Z,4.70
2017-08-15T08:30:22.708Z,5.30
2017-08-15T08:32:52.019Z,5.32
2017-08-15T08:35:21.393Z,3.65
2017-08-15T08:37:51.488Z,3.78
2017-08-15T08:40:20.840Z,4.03
2017-08-15T08:42:50.172Z,4.15
2017-08-15T08:45:19.486Z,3.85
2017-08-15T08:47:48.841Z,4.12
2017-08-15T08:50:18.182Z,4.15
2017-08-15T08:52:47.501Z,4.40
2017-08-15T08:55:17.604Z,4.32
2017-08-15T08:57:46.936Z,4.20
2017-08-15T09:00:17.015Z,3.93
2017-08-15T09:02:46.343Z,3.70
2017-08-15T09:05:15.709Z,4.57
2017-08-15T09:07:45.034Z,3.92
2017-08-15T09:10:14.372Z,4.40
2017-08-15T09:12:44.472Z,4.17
2017-08-15T09:15:13.824Z,3.90
2017-08-15T09:17:43.160Z,3.73
2017-08-15T09:20:12.464Z,3.70
2017-08-15T09:22:41.789Z,4.13
2017-08-15T09:25:11.872Z,4.23
2017-08-15T09:27:41.248Z,4.20
2017-08-15T09:30:10.579Z,4.10
2017-08-15T09:32:39.931Z,3.90
2017-08-15T09:35:10.007Z,4.20
2017-08-15T09:37:39.360Z,4.17
2017-08-15T09:40:08.687Z,3.40
2017-08-15T09:42:38.038Z,4.07
2017-08-15T09:45:08.919Z,4.20
2017-08-15T09:47:38.236Z,3.40
2017-08-15T09:50:07.567Z,3.67
2017-08-15T09:52:36.867Z,4.40
2017-08-15T09:55:06.195Z,3.60
2017-08-15T09:57:35.501Z,4.73
2017-08-15T10:00:04.826Z,4.47
2017-08-15T10:02:34.128Z,3.70
2017-08-15T10:05:03.460Z,4.17
2017-08-15T10:07:32.766Z,3.80
2017-08-15T10:10:02.090Z,4.37
2017-08-15T10:12:31.409Z,4.50
2017-08-15T10:15:01.506Z,4.33
2017-08-15T10:17:30.809Z,3.90
2017-08-15T10:20:00.144Z,4.03
2017-08-15T10:22:29.472Z,4.40
2017-08-15T10:24:58.802Z,4.00
2017-08-15T10:27:28.117Z,4.40
2017-08-15T10:29:57.420Z,4.00
2017-08-15T10:32:27.520Z,3.97
2017-08-15T10:34:56.826Z,4.20
2017-08-15T10:37:26.148Z,4.10
2017-08-15T10:39:55.453Z,4.27
2017-08-15T10:42:25.540Z,5.23
2017-08-15T10:44:54.848Z,3.57
2017-08-15T10:47:24.177Z,3.57
2017-08-15T10:49:53.483Z,4.50
2017-08-15T10:52:23.569Z,3.80
2017-08-15T10:54:52.867Z,5.10
2017-08-15T10:57:22.183Z,4.30
2017-08-15T10:59:51.495Z,6.33
2017-08-15T11:02:20.824Z,4.07
2017-08-15T11:04:50.132Z,4.10
2017-08-15T11:07:19.464Z,3.50
2017-08-15T11:09:48.780Z,4.33
2017-08-15T11:12:18.110Z,3.30
2017-08-15T11:14:47.437Z,3.53
2017-08-15T11:17:16.748Z,3.67
2017-08-15T11:19:46.077Z,3.50
2017-08-15T11:22:15.413Z,3.70
2017-08-15T11:24:44.721Z,3.60
2017-08-15T11:27:15.168Z,3.53
2017-08-15T11:29:44.472Z,3.30
2017-08-15T11:32:13.781Z,3.37
2017-08-15T11:34:43.384Z,3.90
2017-08-15T11:37:12.691Z,3.40
2017-08-15T11:39:42.047Z,3.03
2017-08-15T11:42:12.132Z,3.67
2017-08-15T11:44:41.457Z,3.47
2017-08-15T11:47:16.198Z,3.67
2017-08-15T11:49:46.293Z,3.67
2017-08-15T11:52:15.605Z,2.90
2017-08-15T11:54:44.928Z,3.30
2017-08-15T11:57:15.006Z,3.30
2017-08-15T11:59:44.326Z,3.10
2017-08-15T12:02:13.636Z,3.20
2017-08-15T12:04:42.955Z,3.70
2017-08-15T12:07:12.269Z,3.43
2017-08-15T12:09:41.591Z,3.20
2017-08-15T12:12:10.899Z,3.40
2017-08-15T12:14:40.243Z,3.03
2017-08-15T12:17:09.548Z,3.23
2017-08-15T12:19:38.875Z,3.20
2017-08-15T12:22:08.184Z,2.73
2017-08-15T12:24:37.483Z,3.40
2017-08-15T12:27:06.803Z,3.30
2017-08-15T12:29:36.124Z,3.00
2017-08-15T12:32:05.444Z,3.57
2017-08-15T12:34:34.744Z,3.23
2017-08-15T12:37:04.063Z,3.50
2017-08-15T12:39:34.136Z,3.27
2017-08-15T12:42:03.509Z,3.63
2017-08-15T12:44:32.807Z,3.20
2017-08-15T12:47:02.128Z,3.70
2017-08-15T12:49:31.452Z,3.00
2017-08-15T12:52:00.764Z,3.60
2017-08-15T12:54:30.095Z,3.20
2017-08-15T12:57:00.177Z,4.77
2017-08-15T12:59:29.496Z,4.60
2017-08-15T13:01:58.828Z,7.20
2017-08-15T13:04:28.155Z,5.80
2017-08-15T13:06:57.480Z,6.72
2017-08-15T13:09:26.800Z,6.18
2017-08-15T13:11:56.116Z,6.32
2017-08-15T13:14:25.433Z,5.55
2017-08-15T13:16:55.528Z,6.00
2017-08-15T13:19:24.844Z,5.43
2017-08-15T13:21:54.169Z,6.10
2017-08-15T13:24:23.468Z,6.30
2017-08-15T13:26:53.572Z,6.37
2017-08-15T13:29:22.934Z,5.72
2017-08-15T13:31:52.282Z,6.03
2017-08-15T13:34:21.610Z,6.05
2017-08-15T13:36:50.914Z,6.87
2017-08-15T13:39:20.241Z,6.87
2017-08-15T13:41:49.549Z,6.53
2017-08-15T13:44:18.897Z,6.10
2017-08-15T13:46:48.193Z,6.18
2017-08-15T13:49:17.541Z,6.60
2017-08-15T13:51:46.841Z,6.97
2017-08-15T13:54:16.163Z,6.62
2017-08-15T13:56:45.479Z,6.30
2017-08-15T13:59:14.810Z,5.87
2017-08-15T14:01:44.872Z,5.62
2017-08-15T14:04:14.201Z,6.32
2017-08-15T14:06:43.541Z,5.20
2017-08-15T14:09:12.852Z,5.07
2017-08-15T14:11:42.157Z,6.22
2017-08-15T14:14:11.484Z,6.20
2017-08-15T14:16:41.093Z,14.32
2017-08-15T14:19:10.437Z,6.80
2017-08-15T14:21:39.740Z,6.90
2017-08-15T14:24:09.865Z,5.78
2017-08-15T14:26:39.194Z,6.85
2017-08-15T14:29:08.518Z,5.90
2017-08-15T14:31:37.826Z,5.87
2017-08-15T14:34:07.171Z,7.12
2017-08-15T14:36:36.539Z,6.05
2017-08-15T14:39:05.980Z,6.78
2017-08-15T14:41:35.325Z,6.07
2017-08-15T14:44:04.691Z,6.50
2017-08-15T14:46:34.040Z,6.62
2017-08-15T14:49:03.401Z,5.80
2017-08-15T14:51:32.733Z,6.80
2017-08-15T14:54:02.053Z,5.53
2017-08-15T14:56:31.376Z,6.28
2017-08-15T14:59:01.465Z,5.97
2017-08-15T15:01:30.797Z,6.30
2017-08-15T15:04:01.397Z,5.78
2017-08-15T15:06:30.726Z,6.65
2017-08-15T15:09:00.041Z,7.30
2017-08-15T15:11:29.424Z,6.90
2017-08-15T15:13:58.808Z,6.20
2017-08-15T15:16:28.124Z,6.12
2017-08-15T15:18:57.438Z,6.22
2017-08-15T15:21:26.769Z,6.95
2017-08-15T15:23:56.093Z,6.20
2017-08-15T15:26:25.421Z,6.10
2017-08-15T15:28:54.772Z,6.37
2017-08-15T15:31:24.165Z,6.30
2017-08-15T15:33:54.249Z,6.23
2017-08-15T15:36:23.585Z,6.30
2017-08-15T15:38:52.923Z,5.95
2017-08-15T15:41:22.282Z,7.00
2017-08-15T15:43:51.619Z,6.20
2017-08-15T15:46:21.009Z,6.65
2017-08-15T15:48:50.336Z,6.65
2017-08-15T15:51:20.445Z,6.00
2017-08-15T15:53:49.765Z,6.55
2017-08-15T15:56:19.910Z,6.47
2017-08-15T15:58:49.252Z,6.05
2017-08-15T16:01:18.572Z,5.85
2017-08-15T16:03:47.905Z,5.85
2017-08-15T16:06:17.234Z,6.87
2017-08-15T16:08:46.572Z,5.75
2017-08-15T16:11:15.890Z,5.95
2017-08-15T16:13:45.226Z,6.00
2017-08-15T16:16:14.549Z,7.37
2017-08-15T16:18:43.881Z,6.95
2017-08-15T16:21:13.217Z,7.20
2017-08-15T16:23:42.553Z,7.25
2017-08-15T16:26:11.876Z,6.60
2017-08-15T16:28:41.212Z,5.90
2017-08-15T16:31:10.524Z,6.07
2017-08-15T16:33:40.722Z,7.45
2017-08-15T16:36:10.032Z,8.05
2017-08-15T16:38:40.143Z,9.23
2017-08-15T16:41:10.228Z,8.75
2017-08-15T16:43:39.624Z,7.82
2017-08-15T16:46:08.941Z,7.57
2017-08-15T16:48:39.302Z,8.65
2017-08-15T16:51:08.629Z,9.23
2017-08-15T16:53:37.968Z,7.65
2017-08-15T16:56:07.293Z,7.82
2017-08-15T16:58:37.389Z,7.10
2017-08-15T17:01:07.180Z,6.30
2017-08-15T17:03:36.512Z,7.00
2017-08-15T17:06:05.840Z,7.97
2017-08-15T17:08:35.177Z,6.87
2017-08-15T17:11:04.495Z,7.28
2017-08-15T17:13:33.841Z,7.28
2017-08-15T17:16:03.928Z,6.50
2017-08-15T17:18:33.237Z,7.32
2017-08-15T17:21:02.569Z,7.43
2017-08-15T17:23:31.886Z,7.35
2017-08-15T17:26:01.213Z,8.50
2017-08-15T17:28:30.517Z,8.05
2017-08-15T17:30:59.937Z,8.10
2017-08-15T17:33:29.274Z,8.57
2017-08-15T17:35:58.600Z,8.95
2017-08-15T17:38:27.920Z,12.73
2017-08-15T17:40:57.262Z,12.95
2017-08-15T17:43:26.584Z,10.57
2017-08-15T17:45:56.906Z,10.70
2017-08-15T17:48:27.013Z,10.20
2017-08-15T17:50:56.341Z,9.68
2017-08-15T17:53:25.656Z,9.20
2017-08-15T17:55:54.982Z,9.02
2017-08-15T17:58:24.295Z,9.15
2017-08-15T18:00:53.633Z,8.98
2017-08-15T18:03:22.953Z,8.82
2017-08-15T18:05:52.298Z,10.80
2017-08-15T18:08:21.624Z,10.10
2017-08-15T18:10:51.004Z,8.88
2017-08-15T18:13:21.092Z,9.75
2017-08-15T18:15:50.441Z,9.10
2017-08-15T18:18:19.754Z,9.00
2017-08-15T18:20:49.095Z,9.82
2017-08-15T18:23:18.433Z,10.43
2017-08-15T18:25:47.765Z,10.80
2017-08-15T18:28:17.093Z,10.05
2017-08-15T18:30:46.426Z,9.20
2017-08-15T18:33:15.744Z,9.15
2017-08-15T18:35:45.085Z,8.45
2017-08-15T18:38:14.427Z,8.95
2017-08-15T18:40:43.753Z,9.40
2017-08-15T18:43:13.088Z,9.05
2017-08-15T18:45:42.406Z,10.25
2017-08-15T18:48:11.736Z,9.48
2017-08-15T18:50:41.815Z,9.10
2017-08-15T18:53:11.149Z,9.07
2017-08-15T18:55:40.485Z,9.80
2017-08-15T18:58:09.829Z,10.63
2017-08-15T19:00:39.144Z,9.25
2017-08-15T19:03:08.485Z,9.30
2017-08-15T19:05:37.793Z,8.90
2017-08-15T19:08:07.141Z,9.40
2017-08-15T19:10:36.460Z,9.43
2017-08-15T19:13:05.789Z,10.40
2017-08-15T19:15:35.101Z,9.98
2017-08-15T19:18:04.437Z,9.70
2017-08-15T19:20:33.744Z,9.95
2017-08-15T19:23:03.088Z,10.00
2017-08-15T19:25:32.404Z,8.30
2017-08-15T19:28:01.733Z,9.35
2017-08-15T19:30:31.058Z,9.73
2017-08-15T19:33:00.441Z,9.68
2017-08-15T19:35:29.758Z,10.10
2017-08-15T19:37:59.090Z,9.50
2017-08-15T19:40:28.401Z,12.10
2017-08-15T19:42:57.729Z,10.38
2017-08-15T19:45:27.060Z,9.70
2017-08-15T19:47:56.372Z,10.25
2017-08-15T19:50:25.714Z,11.30
2017-08-15T19:52:55.092Z,9.73
2017-08-15T19:55:24.409Z,9.38
2017-08-15T19:57:53.734Z,10.13
2017-08-15T20:00:23.081Z,11.32
2017-08-15T20:02:52.388Z,9.63
2017-08-15T20:05:21.713Z,9.55
2017-08-15T20:07:51.042Z,10.10
2017-08-15T20:10:20.365Z,10.98
2017-08-15T20:12:49.705Z,10.80
2017-08-15T20:15:19.072Z,11.40
2017-08-15T20:17:48.434Z,13.70
2017-08-15T20:20:17.823Z,15.10
2017-08-15T20:22:47.929Z,13.80
2017-08-15T20:25:17.258Z,13.80
2017-08-15T20:27:46.590Z,13.38
2017-08-15T20:30:15.925Z,13.43
2017-08-15T20:32:45.215Z,12.63
2017-08-15T20:35:14.525Z,13.70
2017-08-15T20:37:43.825Z,12.60
2017-08-15T20:40:13.133Z,12.95
2017-08-15T20:42:42.428Z,13.57
2017-08-15T20:45:11.744Z,13.10
2017-08-15T20:47:41.141Z,13.15
2017-08-15T20:50:10.449Z,11.90
2017-08-15T20:52:39.836Z,11.45
2017-08-15T20:55:09.132Z,10.20
2017-08-15T20:57:38.533Z,10.05
2017-08-15T21:00:07.841Z,10.10
2017-08-15T21:02:37.168Z,9.43
2017-08-15T21:05:06.472Z,9.68
2017-08-15T21:07:35.801Z,8.48
2017-08-15T21:10:05.868Z,8.95
2017-08-15T21:12:35.188Z,9.27
2017-08-15T21:15:04.496Z,9.27
2017-08-15T21:17:33.821Z,9.20
2017-08-15T21:20:03.897Z,8.85
2017-08-15T21:22:33.218Z,9.43
2017-08-15T21:25:02.537Z,8.82
2017-08-15T21:27:32.626Z,9.98
2017-08-15T21:30:01.915Z,10.02
2017-08-15T21:32:31.238Z,10.15
2017-08-15T21:35:00.530Z,9.00
2017-08-15T21:37:29.837Z,9.52
2017-08-15T21:39:59.130Z,9.00
2017-08-15T21:42:28.440Z,8.85
2017-08-15T21:44:57.729Z,9.68
2017-08-15T21:47:27.037Z,9.40
2017-08-15T21:49:56.329Z,9.95
2017-08-15T21:52:25.644Z,9.32
2017-08-15T21:54:54.964Z,10.25
2017-08-15T21:57:25.148Z,9.38
2017-08-15T21:59:54.448Z,8.98
2017-08-15T22:02:23.762Z,9.82
2017-08-15T22:04:53.084Z,8.02
2017-08-15T22:07:22.401Z,8.32
2017-08-15T22:09:52.497Z,8.07
2017-08-15T22:12:21.811Z,8.57
2017-08-15T22:14:51.129Z,7.65
2017-08-15T22:17:20.443Z,7.68
2017-08-15T22:19:50.517Z,7.80
2017-08-15T22:22:19.825Z,7.57
2017-08-15T22:24:49.157Z,8.55
2017-08-15T22:27:18.495Z,8.52
2017-08-15T22:29:47.812Z,8.40
2017-08-15T22:32:17.130Z,9.32
2017-08-15T22:34:46.445Z,8.23
2017-08-15T22:37:16.534Z,9.35
2017-08-15T22:39:45.869Z,9.27
2017-08-15T22:42:15.947Z,8.40
2017-08-15T22:44:45.277Z,8.70
2017-08-15T22:47:14.593Z,9.30
2017-08-15T22:49:44.680Z,8.85
2017-08-15T22:52:13.988Z,7.90
2017-08-15T22:54:43.324Z,8.70
2017-08-15T22:57:13.402Z,6.72
2017-08-15T22:59:42.728Z,6.47
2017-08-15T23:02:12.048Z,7.15
2017-08-15T23:04:41.349Z,6.10
2017-08-15T23:07:11.427Z,5.37
2017-08-15T23:09:40.733Z,5.90
2017-08-15T23:12:10.051Z,5.03
2017-08-15T23:14:40.128Z,5.32
2017-08-15T23:17:09.444Z,5.60
2017-08-15T23:19:38.745Z,5.80
2017-08-15T23:22:08.068Z,6.05
2017-08-15T23:24:37.382Z,5.57
2017-08-15T23:27:07.469Z,5.70
2017-08-15T23:29:36.776Z,5.72
2017-08-15T23:32:06.098Z,5.28
2017-08-15T23:34:35.392Z,5.50
2017-08-15T23:37:04.744Z,5.47
2017-08-15T23:39:34.045Z,6.20
2017-08-15T23:42:03.357Z,4.70
2017-08-15T23:44:32.668Z,4.95
2017-08-15T23:47:02.009Z,5.15
2017-08-15T23:49:31.305Z,5.50
2017-08-15T23:52:01.389Z,4.97
2017-08-15T23:54:30.695Z,5.35
2017-08-15T23:57:00.010Z,5.60
2017-08-15T23:59:30.099Z,5.15
